Time,TemperatureF,DewpointF,PressureIn,WindDirection,WindDirectionDegrees,WindSpeedMPH,WindSpeedGustMPH,Humidity,HourlyPrecipIn,Conditions,Clouds,dailyrainin,SoftwareType,DateUTC
2013-02-22 00:13:00,45.7,39.2,29.74,NE,45,6.8,-999.0,78,-99.99,,,0.00,Acu-Link.com,2013-02-22 06:13:00,
2013-02-22 00:28:00,44.8,39.3,29.75,NNW,337,5.3,-999.0,81,-99.99,,,0.00,Acu-Link.com,2013-02-22 06:28:00,
2013-02-22 00:43:00,43.7,38.6,29.77,NE,45,10.4,-999.0,82,-99.99,,,0.00,Acu-Link.com,2013-02-22 06:43:00,
2013-02-22 00:59:00,42.6,37.5,29.77,North,0,4.7,-999.0,82,-99.99,,,0.00,Acu-Link.com,2013-02-22 06:59:00,
2013-02-22 01:14:00,41.7,37.2,29.79,NNE,22,7.3,-999.0,84,-99.99,,,0.00,Acu-Link.com,2013-02-22 07:14:00,
2013-02-22 01:30:00,41.0,36.8,29.80,NNE,22,8.9,-999.0,85,-99.99,,,0.00,Acu-Link.com,2013-02-22 07:30:00,
2013-02-22 01:45:00,40.5,36.4,29.78,NNW,337,7.8,-999.0,85,-99.99,,,0.00,Acu-Link.com,2013-02-22 07:45:00,
2013-02-22 02:00:00,40.3,36.5,29.79,NE,45,9.4,-999.0,86,-99.99,,,0.00,Acu-Link.com,2013-02-22 08:00:00,
2013-02-22 02:16:00,37.9,33.5,29.78,North,0,9.9,-999.0,84,-99.99,,,0.00,Acu-Link.com,2013-02-22 08:16:00,
2013-02-22 02:31:00,37.2,31.6,29.83,NNE,22,8.3,-999.0,80,-99.99,,,0.00,Acu-Link.com,2013-02-22 08:31:00,
2013-02-22 02:46:00,36.3,30.7,29.85,NE,45,6.8,-999.0,80,-99.99,,,0.00,Acu-Link.com,2013-02-22 08:46:00,
2013-02-22 03:20:00,35.8,30.2,29.88,NNE,22,3.7,-999.0,80,-99.99,,,0.00,Acu-Link.com,2013-02-22 09:20:00,
2013-02-22 03:35:00,34.3,29.7,29.88,NNW,337,5.8,-999.0,83,-99.99,,,0.00,Acu-Link.com,2013-02-22 09:35:00,
2013-02-22 03:50:00,33.6,29.3,29.89,NNW,337,5.3,-999.0,84,-99.99,,,0.00,Acu-Link.com,2013-02-22 09:50:00,
2013-02-22 04:05:00,33.3,28.1,29.90,NNW,337,6.8,-999.0,81,-99.99,,,0.00,Acu-Link.com,2013-02-22 10:05:00,
2013-02-22 04:20:00,33.1,27.9,29.90,NNW,337,6.3,-999.0,81,-99.99,,,0.00,Acu-Link.com,2013-02-22 10:20:00,
2013-02-22 04:36:00,32.5,27.0,29.90,NE,45,5.8,-999.0,80,-99.99,,,0.00,Acu-Link.com,2013-02-22 10:36:00,
2013-02-22 04:51:00,32.0,26.2,29.90,NE,45,6.8,-999.0,79,-99.99,,,0.00,Acu-Link.com,2013-02-22 10:51:00,
2013-02-22 05:07:00,32.0,26.5,29.91,NNE,22,5.3,-999.0,80,-99.99,,,0.00,Acu-Link.com,2013-02-22 11:07:00,
2013-02-22 05:22:00,31.3,25.6,29.92,NNW,337,10.4,-999.0,79,-99.99,,,0.00,Acu-Link.com,2013-02-22 11:22:00,
2013-02-22 05:37:00,30.9,24.9,29.91,NNW,337,5.3,-999.0,78,-99.99,,,0.00,Acu-Link.com,2013-02-22 11:37:00,
2013-02-22 05:52:00,30.6,24.6,29.92,NW,315,6.3,-999.0,78,-99.99,,,0.00,Acu-Link.com,2013-02-22 11:52:00,
2013-02-22 06:07:00,30.2,24.2,29.92,NNW,337,5.8,-999.0,78,-99.99,,,0.00,Acu-Link.com,2013-02-22 12:07:00,
2013-02-22 06:22:00,29.8,23.5,29.94,NNW,337,7.8,-999.0,77,-99.99,,,0.00,Acu-Link.com,2013-02-22 12:22:00,
2013-02-22 06:38:00,29.5,23.2,29.96,NNW,337,4.7,-999.0,77,-99.99,,,0.00,Acu-Link.com,2013-02-22 12:38:00,
2013-02-22 06:53:00,29.3,23.0,29.96,NW,315,5.3,-999.0,77,-99.99,,,0.00,Acu-Link.com,2013-02-22 12:53:00,
2013-02-22 07:08:00,28.8,22.2,29.95,NNW,337,4.7,-999.0,76,-99.99,,,0.00,Acu-Link.com,2013-02-22 13:08:00,
2013-02-22 07:23:00,28.8,22.2,29.95,NE,45,4.7,-999.0,76,-99.99,,,0.00,Acu-Link.com,2013-02-22 13:23:00,
2013-02-22 07:38:00,29.1,21.9,29.95,NNW,337,4.7,-999.0,74,-99.99,,,0.00,Acu-Link.com,2013-02-22 13:38:00,
2013-02-22 07:54:00,29.5,21.9,29.97,NNW,337,4.7,-999.0,73,-99.99,,,0.00,Acu-Link.com,2013-02-22 13:54:00,
2013-02-22 08:09:00,29.8,21.9,29.97,NNE,22,5.8,-999.0,72,-99.99,,,0.00,Acu-Link.com,2013-02-22 14:09:00,
2013-02-22 08:24:00,30.2,21.9,29.97,NE,45,4.7,-999.0,71,-99.99,,,0.00,Acu-Link.com,2013-02-22 14:24:00,
2013-02-22 08:39:00,31.1,21.8,29.97,NE,45,7.3,-999.0,68,-99.99,,,0.00,Acu-Link.com,2013-02-22 14:39:00,
2013-02-22 08:54:00,31.6,21.9,29.97,NE,45,9.4,-999.0,67,-99.99,,,0.00,Acu-Link.com,2013-02-22 14:54:00,
2013-02-22 09:10:00,32.2,21.8,29.98,NE,45,8.9,-999.0,65,-99.99,,,0.00,Acu-Link.com,2013-02-22 15:10:00,
2013-02-22 09:25:00,32.9,21.7,29.98,NE,45,6.8,-999.0,63,-99.99,,,0.00,Acu-Link.com,2013-02-22 15:25:00,
2013-02-22 09:40:00,33.6,21.6,29.99,NNW,337,5.3,-999.0,61,-99.99,,,0.00,Acu-Link.com,2013-02-22 15:40:00,
2013-02-22 09:55:00,34.9,22.0,29.99,NE,45,7.8,-999.0,59,-99.99,,,0.00,Acu-Link.com,2013-02-22 15:55:00,
2013-02-22 10:10:00,35.2,22.7,29.99,NE,45,4.7,-999.0,60,-99.99,,,0.00,Acu-Link.com,2013-02-22 16:10:00,
2013-02-22 10:26:00,36.0,22.7,29.98,NE,45,5.8,-999.0,58,-99.99,,,0.00,Acu-Link.com,2013-02-22 16:26:00,
2013-02-22 10:41:00,36.7,22.9,29.97,NE,45,5.8,-999.0,57,-99.99,,,0.00,Acu-Link.com,2013-02-22 16:41:00,
2013-02-22 10:56:00,37.2,23.0,29.98,North,0,6.8,-999.0,56,-99.99,,,0.00,Acu-Link.com,2013-02-22 16:56:00,
2013-02-22 11:11:00,37.9,22.8,29.97,NNE,22,4.7,-999.0,54,-99.99,,,0.00,Acu-Link.com,2013-02-22 17:11:00,
2013-02-22 11:26:00,38.7,22.6,29.96,NE,45,6.3,-999.0,52,-99.99,,,0.00,Acu-Link.com,2013-02-22 17:26:00,
2013-02-22 11:41:00,39.7,23.5,29.96,NNW,337,6.3,-999.0,52,-99.99,,,0.00,Acu-Link.com,2013-02-22 17:41:00,
2013-02-22 11:57:00,42.6,24.3,29.95,NE,45,5.3,-999.0,48,-99.99,,,0.00,Acu-Link.com,2013-02-22 17:57:00,
2013-02-22 12:12:00,45.1,24.5,29.95,NNE,22,6.3,-999.0,44,-99.99,,,0.00,Acu-Link.com,2013-02-22 18:12:00,
2013-02-22 12:27:00,45.5,24.9,29.93,NE,45,7.3,-999.0,44,-99.99,,,0.00,Acu-Link.com,2013-02-22 18:27:00,
2013-02-22 12:42:00,46.6,24.8,29.92,NNW,337,6.3,-999.0,42,-99.99,,,0.00,Acu-Link.com,2013-02-22 18:42:00,
2013-02-22 12:58:00,47.5,25.6,29.91,NE,45,7.3,-999.0,42,-99.99,,,0.00,Acu-Link.com,2013-02-22 18:58:00,
2013-02-22 13:13:00,49.3,26.6,29.91,NE,45,7.8,-999.0,41,-99.99,,,0.00,Acu-Link.com,2013-02-22 19:13:00,
2013-02-22 13:28:00,48.4,25.2,29.89,NE,45,3.7,-999.0,40,-99.99,,,0.00,Acu-Link.com,2013-02-22 19:28:00,
2013-02-22 13:43:00,51.8,27.6,29.89,NW,315,3.7,-999.0,39,-99.99,,,0.00,Acu-Link.com,2013-02-22 19:43:00,
2013-02-22 13:58:00,53.4,29.1,29.87,ENE,67,3.7,-999.0,39,-99.99,,,0.00,Acu-Link.com,2013-02-22 19:58:00,
2013-02-22 14:13:00,52.5,27.6,29.86,NNW,337,6.3,-999.0,38,-99.99,,,0.00,Acu-Link.com,2013-02-22 20:13:00,
2013-02-22 14:28:00,53.1,28.2,29.85,NNE,22,9.4,-999.0,38,-99.99,,,0.00,Acu-Link.com,2013-02-22 20:28:00,
2013-02-22 14:44:00,54.7,28.3,29.84,East,90,6.8,-999.0,36,-99.99,,,0.00,Acu-Link.com,2013-02-22 20:44:00,
2013-02-22 14:59:00,54.0,27.7,29.85,ENE,67,2.7,-999.0,36,-99.99,,,0.00,Acu-Link.com,2013-02-22 20:59:00,
2013-02-22 15:15:00,55.2,28.7,29.85,NE,45,6.3,-999.0,36,-99.99,,,0.00,Acu-Link.com,2013-02-22 21:15:00,
2013-02-22 15:30:00,55.6,29.1,29.84,ENE,67,7.3,-999.0,36,-99.99,,,0.00,Acu-Link.com,2013-02-22 21:30:00,
2013-02-22 15:45:00,56.8,29.4,29.83,East,90,6.8,-999.0,35,-99.99,,,0.00,Acu-Link.com,2013-02-22 21:45:00,
2013-02-22 16:01:00,55.6,29.1,29.83,East,90,2.2,-999.0,36,-99.99,,,0.00,Acu-Link.com,2013-02-22 22:01:00,
2013-02-22 16:16:00,55.9,30.0,29.83,WNW,292,3.2,-999.0,37,-99.99,,,0.00,Acu-Link.com,2013-02-22 22:16:00,
2013-02-22 16:31:00,55.6,29.1,29.83,ENE,67,4.2,-999.0,36,-99.99,,,0.00,Acu-Link.com,2013-02-22 22:31:00,
2013-02-22 16:47:00,55.4,29.6,29.83,ENE,67,4.7,-999.0,37,-99.99,,,0.00,Acu-Link.com,2013-02-22 22:47:00,
2013-02-22 17:02:00,55.8,29.9,29.83,NE,45,4.2,-999.0,37,-99.99,,,0.00,Acu-Link.com,2013-02-22 23:02:00,
2013-02-22 17:17:00,55.8,29.9,29.83,ENE,67,4.7,-999.0,37,-99.99,,,0.00,Acu-Link.com,2013-02-22 23:17:00,
2013-02-22 17:33:00,55.0,29.9,29.85,ENE,67,3.7,-999.0,38,-99.99,,,0.00,Acu-Link.com,2013-02-22 23:33:00,
2013-02-22 17:48:00,54.3,29.9,29.85,NE,45,4.2,-999.0,39,-99.99,,,0.00,Acu-Link.com,2013-02-22 23:48:00,
2013-02-22 18:03:00,53.8,29.4,29.85,ENE,67,3.7,-999.0,39,-99.99,,,0.00,Acu-Link.com,2013-02-23 00:03:00,
2013-02-22 18:19:00,52.2,29.2,29.85,NE,45,3.7,-999.0,41,-99.99,,,0.00,Acu-Link.com,2013-02-23 00:19:00,
2013-02-22 18:34:00,50.9,29.8,29.87,NE,45,3.7,-999.0,44,-99.99,,,0.00,Acu-Link.com,2013-02-23 00:34:00,
2013-02-22 18:49:00,49.6,29.1,29.87,ENE,67,3.2,-999.0,45,-99.99,,,0.00,Acu-Link.com,2013-02-23 00:49:00,
2013-02-22 19:05:00,48.6,29.3,29.88,ENE,67,3.2,-999.0,47,-99.99,,,0.00,Acu-Link.com,2013-02-23 01:05:00,
2013-02-22 19:20:00,47.5,29.3,29.89,ENE,67,2.7,-999.0,49,-99.99,,,0.00,Acu-Link.com,2013-02-23 01:20:00,
2013-02-22 19:35:00,46.8,29.6,29.89,ENE,67,3.2,-999.0,51,-99.99,,,0.22,Acu-Link.com,2013-02-23 01:35:00,
2013-02-22 19:50:00,45.7,29.6,29.90,ENE,67,2.7,-999.0,53,-99.99,,,0.22,Acu-Link.com,2013-02-23 01:50:00,
2013-02-22 20:05:00,45.0,29.4,29.89,NE,45,2.7,-999.0,54,-99.99,,,0.22,Acu-Link.com,2013-02-23 02:05:00,
2013-02-22 20:21:00,44.4,29.7,29.90,NE,45,3.2,-999.0,56,-99.99,,,0.22,Acu-Link.com,2013-02-23 02:21:00,
2013-02-22 20:36:00,43.5,29.7,29.90,NE,45,3.2,-999.0,58,-99.99,,,0.22,Acu-Link.com,2013-02-23 02:36:00,
2013-02-22 20:51:00,43.2,29.4,29.91,NE,45,2.7,-999.0,58,-99.99,,,0.22,Acu-Link.com,2013-02-23 02:51:00,
2013-02-22 21:06:00,42.1,29.2,29.92,NE,45,3.7,-999.0,60,-99.99,,,0.22,Acu-Link.com,2013-02-23 03:06:00,
2013-02-22 21:22:00,41.4,29.4,29.92,NE,45,2.7,-999.0,62,-99.99,,,0.22,Acu-Link.com,2013-02-23 03:22:00,
2013-02-22 21:37:00,40.6,29.4,29.92,NE,45,2.2,-999.0,64,-99.99,,,0.22,Acu-Link.com,2013-02-23 03:37:00,
2013-02-22 21:52:00,39.6,29.2,29.92,NE,45,2.7,-999.0,66,-99.99,,,0.22,Acu-Link.com,2013-02-23 03:52:00,
2013-02-22 22:08:00,39.0,29.0,29.91,NE,45,2.2,-999.0,67,-99.99,,,0.22,Acu-Link.com,2013-02-23 04:08:00,
2013-02-22 22:23:00,39.0,29.0,29.92,NE,45,3.2,-999.0,67,-99.99,,,0.22,Acu-Link.com,2013-02-23 04:23:00,
2013-02-22 22:38:00,39.0,29.0,29.91,NE,45,4.7,-999.0,67,-99.99,,,0.22,Acu-Link.com,2013-02-23 04:38:00,
2013-02-22 22:54:00,39.2,28.8,29.91,NE,45,5.3,-999.0,66,-99.99,,,0.22,Acu-Link.com,2013-02-23 04:54:00,
2013-02-22 23:09:00,39.7,28.5,29.91,NE,45,5.3,-999.0,64,-99.99,,,0.22,Acu-Link.com,2013-02-23 05:09:00,
2013-02-22 23:24:00,39.6,28.1,29.90,NE,45,5.8,-999.0,63,-99.99,,,0.22,Acu-Link.com,2013-02-23 05:24:00,
2013-02-22 23:40:00,39.4,27.9,29.91,NE,45,7.3,-999.0,63,-99.99,,,0.22,Acu-Link.com,2013-02-23 05:40:00,
2013-02-22 23:55:00,39.0,27.5,29.90,NE,45,5.8,-999.0,63,-99.99,,,0.22,Acu-Link.com,2013-02-23 05:55:00,